Terminal Aerodrome Forecast
Issued by NWS Tiyan, Guam

Home | Current Version | Previous Version | Text Only | Print | Product List | Glossary On
Versions: 1 2 3 4 5 6 7 8 9 10 11 12 13 14 15 16 17 18 19 20 21 22 23 24 25 26
416
FTPQ31 PGUM 110522
TAFGUM
TAF
PGUM 110522Z 1106/1212 05016G25KT P6SM VCSH SCT020 SCT040 BKN050
     FM110900 06011KT P6SM VCSH SCT020 SCT040 BKN050
     FM112200 06016G26KT P6SM VCSH SCT020 SCT040 BKN050=

USA.gov is the U.S. government's official web portal to all federal, state and local government web resources and services.